createdAt,value
2023-05-16T00:00:08.490Z,23.45
2023-05-16T00:00:18.554Z,23.47
2023-05-16T00:00:28.650Z,23.49
2023-05-16T00:00:38.525Z,23.49
2023-05-16T00:00:48.486Z,23.49
2023-05-16T00:01:08.497Z,23.47
2023-05-16T00:01:27.476Z,23.47
2023-05-16T00:01:38.649Z,23.47
2023-05-16T00:01:48.529Z,23.47
2023-05-16T00:01:58.547Z,23.47
2023-05-16T00:02:08.521Z,23.45
2023-05-16T00:02:18.573Z,23.47
2023-05-16T00:02:28.593Z,23.47
2023-05-16T00:02:48.753Z,23.49
2023-05-16T00:02:58.555Z,23.47
2023-05-16T00:03:08.596Z,23.50
2023-05-16T00:03:18.540Z,23.50
2023-05-16T00:03:38.604Z,23.47
2023-05-16T00:03:58.584Z,23.47
2023-05-16T00:04:08.639Z,23.47
2023-05-16T00:04:18.547Z,23.49
2023-05-16T00:04:28.482Z,23.49
2023-05-16T00:04:38.577Z,23.47
2023-05-16T00:04:48.457Z,23.49
2023-05-16T00:05:08.460Z,23.49
2023-05-16T00:05:18.476Z,23.47
2023-05-16T00:05:28.450Z,23.49
2023-05-16T00:05:38.473Z,23.49
2023-05-16T00:05:58.499Z,23.45
2023-05-16T00:06:18.496Z,23.47
2023-05-16T00:06:28.448Z,23.47
2023-05-16T00:06:38.493Z,23.47
2023-05-16T00:06:48.444Z,23.50
2023-05-16T00:06:58.480Z,23.47
2023-05-16T00:07:08.438Z,23.47
2023-05-16T00:07:18.503Z,23.47
2023-05-16T00:07:38.463Z,23.44
2023-05-16T00:07:48.437Z,23.47
2023-05-16T00:07:58.478Z,23.45
2023-05-16T00:08:08.448Z,23.50
2023-05-16T00:08:28.431Z,23.45
2023-05-16T00:08:38.498Z,23.50
2023-05-16T00:08:48.448Z,23.47
2023-05-16T00:09:08.435Z,23.47
2023-05-16T00:09:18.466Z,23.50
2023-05-16T00:09:28.424Z,23.45
2023-05-16T00:09:38.466Z,23.49
2023-05-16T00:09:48.444Z,23.45
2023-05-16T00:09:58.449Z,23.49
2023-05-16T00:10:18.458Z,23.47
2023-05-16T00:10:28.632Z,23.45
2023-05-16T00:10:38.444Z,23.49
2023-05-16T00:10:57.431Z,23.45
2023-05-16T00:11:08.423Z,23.47
2023-05-16T00:11:28.408Z,23.45
2023-05-16T00:11:38.436Z,23.44
2023-05-16T00:11:48.421Z,23.47
2023-05-16T00:11:58.452Z,23.45
2023-05-16T00:12:08.406Z,23.49
2023-05-16T00:12:18.454Z,23.45
2023-05-16T00:12:38.448Z,23.45
2023-05-16T00:12:48.400Z,23.45
2023-05-16T00:12:58.446Z,23.45
2023-05-16T00:13:18.443Z,23.47
2023-05-16T00:13:28.399Z,23.49
2023-05-16T00:13:48.391Z,23.45
2023-05-16T00:13:58.420Z,23.47
2023-05-16T00:14:08.393Z,23.49
2023-05-16T00:14:18.435Z,23.50
2023-05-16T00:14:28.430Z,23.47
2023-05-16T00:14:38.389Z,23.47
2023-05-16T00:14:48.430Z,23.47
2023-05-16T00:15:07.404Z,23.49
2023-05-16T00:15:18.388Z,23.47
2023-05-16T00:15:28.441Z,23.47
2023-05-16T00:15:48.396Z,23.47
2023-05-16T00:15:58.377Z,23.47
2023-05-16T00:16:08.450Z,23.49
2023-05-16T00:16:28.446Z,23.47
2023-05-16T00:16:38.390Z,23.47
2023-05-16T00:16:48.460Z,23.49
2023-05-16T00:16:58.453Z,23.47
2023-05-16T00:17:08.497Z,23.45
2023-05-16T00:17:18.368Z,23.47
2023-05-16T00:17:28.458Z,23.49
2023-05-16T00:17:48.437Z,23.47
2023-05-16T00:17:58.433Z,23.45
2023-05-16T00:18:18.378Z,23.49
2023-05-16T00:18:28.384Z,23.45
2023-05-16T00:18:38.418Z,23.49
2023-05-16T00:18:58.411Z,23.49
2023-05-16T00:19:08.955Z,23.49
2023-05-16T00:19:18.405Z,23.47
2023-05-16T00:19:28.408Z,23.44
2023-05-16T00:19:38.387Z,23.44
2023-05-16T00:19:48.380Z,23.50
2023-05-16T00:20:07.386Z,23.45
2023-05-16T00:20:18.350Z,23.49
2023-05-16T00:20:28.866Z,23.47
2023-05-16T00:20:48.399Z,23.45
2023-05-16T00:20:58.352Z,23.44
2023-05-16T00:21:08.394Z,23.47
2023-05-16T00:21:28.389Z,23.47
2023-05-16T00:21:38.342Z,23.47
2023-05-16T00:21:48.370Z,23.44
2023-05-16T00:21:58.339Z,23.45
2023-05-16T00:22:08.559Z,23.45
2023-05-16T00:22:18.337Z,23.45
2023-05-16T00:22:37.329Z,23.45
2023-05-16T00:22:48.370Z,23.45
2023-05-16T00:22:58.340Z,23.47
2023-05-16T00:23:18.327Z,23.49
2023-05-16T00:23:28.375Z,23.47
2023-05-16T00:23:38.326Z,23.44
2023-05-16T00:23:57.326Z,23.45
2023-05-16T00:24:08.376Z,23.47
2023-05-16T00:24:18.321Z,23.47
2023-05-16T00:24:28.337Z,23.44
2023-05-16T00:24:38.316Z,23.45
2023-05-16T00:24:48.361Z,23.45
2023-05-16T00:24:58.335Z,23.42
2023-05-16T00:25:18.326Z,23.45
2023-05-16T00:25:28.349Z,23.45
2023-05-16T00:25:48.331Z,23.44
2023-05-16T00:25:58.310Z,23.45
2023-05-16T00:26:08.354Z,23.49
2023-05-16T00:26:27.337Z,23.47
2023-05-16T00:26:38.299Z,23.47
2023-05-16T00:26:48.345Z,23.47
2023-05-16T00:26:58.308Z,23.45
2023-05-16T00:27:08.325Z,23.45
2023-05-16T00:27:18.298Z,23.45
2023-05-16T00:27:28.351Z,23.42
2023-05-16T00:27:48.317Z,23.45
2023-05-16T00:28:08.325Z,23.45
2023-05-16T00:28:18.294Z,23.45
2023-05-16T00:28:28.317Z,23.42
2023-05-16T00:28:38.292Z,23.47
2023-05-16T00:28:48.337Z,23.47
2023-05-16T00:28:58.285Z,23.42
2023-05-16T00:29:08.332Z,23.45
2023-05-16T00:29:28.305Z,23.42
2023-05-16T00:29:38.287Z,23.44
2023-05-16T00:29:48.306Z,23.44
2023-05-16T00:29:58.294Z,23.47
2023-05-16T00:30:08.307Z,23.45
2023-05-16T00:30:38.276Z,23.45
2023-05-16T00:30:48.327Z,23.45
2023-05-16T00:30:58.305Z,23.44
2023-05-16T00:31:08.330Z,23.44
2023-05-16T00:31:18.362Z,23.45
2023-05-16T00:31:28.348Z,23.44
2023-05-16T00:31:47.389Z,23.45
2023-05-16T00:31:58.377Z,23.45
2023-05-16T00:32:08.362Z,23.42
2023-05-16T00:32:18.307Z,23.44
2023-05-16T00:32:28.352Z,23.44
2023-05-16T00:32:38.287Z,23.45
2023-05-16T00:32:48.303Z,23.41
2023-05-16T00:33:08.363Z,23.45
2023-05-16T00:33:18.260Z,23.42
2023-05-16T00:33:28.302Z,23.44
2023-05-16T00:33:38.261Z,23.45
2023-05-16T00:33:48.313Z,23.45
2023-05-16T00:33:58.307Z,23.45
2023-05-16T00:34:17.269Z,23.42
2023-05-16T00:34:28.330Z,23.44
2023-05-16T00:34:38.279Z,23.45
2023-05-16T00:34:48.344Z,23.45
2023-05-16T00:34:58.243Z,23.44
2023-05-16T00:35:08.266Z,23.45
2023-05-16T00:35:18.239Z,23.45
2023-05-16T00:35:38.243Z,23.42
2023-05-16T00:35:48.281Z,23.44
2023-05-16T00:35:58.244Z,23.45
2023-05-16T00:36:08.260Z,23.44
2023-05-16T00:36:18.237Z,23.45
2023-05-16T00:36:28.256Z,23.45
2023-05-16T00:36:48.255Z,23.44
2023-05-16T00:36:58.235Z,23.45
2023-05-16T00:37:08.255Z,23.47
2023-05-16T00:37:18.231Z,23.44
2023-05-16T00:37:28.242Z,23.44
2023-05-16T00:37:38.238Z,23.45
2023-05-16T00:37:58.280Z,23.44
2023-05-16T00:38:08.249Z,23.42
2023-05-16T00:38:18.221Z,23.44
2023-05-16T00:38:28.269Z,23.44
2023-05-16T00:38:38.226Z,23.44
2023-05-16T00:38:48.241Z,23.44
2023-05-16T00:39:08.241Z,23.44
2023-05-16T00:39:18.220Z,23.45
2023-05-16T00:39:28.237Z,23.44
2023-05-16T00:39:38.208Z,23.44
2023-05-16T00:39:48.236Z,23.45
2023-05-16T00:39:58.211Z,23.44
2023-05-16T00:40:08.280Z,23.42
2023-05-16T00:40:28.485Z,23.42
2023-05-16T00:40:38.234Z,23.44
2023-05-16T00:40:48.229Z,23.45
2023-05-16T00:40:58.226Z,23.44
2023-05-16T00:41:08.248Z,23.42
2023-05-16T00:41:18.220Z,23.44
2023-05-16T00:41:37.198Z,23.44
2023-05-16T00:41:48.237Z,23.44
2023-05-16T00:41:58.199Z,23.42
2023-05-16T00:42:14.816Z,23.41
2023-05-16T00:42:20.022Z,23.47
2023-05-16T00:42:30.001Z,23.44
2023-05-16T00:42:39.968Z,23.42
2023-05-16T00:42:50.003Z,23.45
2023-05-16T00:42:59.994Z,23.45
2023-05-16T00:43:18.962Z,23.42
2023-05-16T00:43:29.989Z,23.47
2023-05-16T00:43:39.973Z,23.45
2023-05-16T00:43:49.991Z,23.42
2023-05-16T00:43:59.964Z,23.41
2023-05-16T00:44:10.011Z,23.45
2023-05-16T00:44:20.020Z,23.42
2023-05-16T00:44:30.011Z,23.44
2023-05-16T00:44:49.983Z,23.45
2023-05-16T00:44:59.958Z,23.44
2023-05-16T00:45:09.977Z,23.42
2023-05-16T00:45:30.003Z,23.47
2023-05-16T00:45:39.951Z,23.44
2023-05-16T00:45:59.974Z,23.42
2023-05-16T00:46:10.029Z,23.44
2023-05-16T00:46:20.103Z,23.42
2023-05-16T00:46:30.002Z,23.44
2023-05-16T00:46:40.082Z,23.44
2023-05-16T00:46:50.026Z,23.44
2023-05-16T00:47:09.989Z,23.42
2023-05-16T00:47:19.942Z,23.42
2023-05-16T00:47:30.019Z,23.44
2023-05-16T00:47:39.993Z,23.44
2023-05-16T00:48:00.010Z,23.44
2023-05-16T00:48:18.922Z,23.44
2023-05-16T00:48:29.986Z,23.44
2023-05-16T00:48:39.937Z,23.45
2023-05-16T00:48:49.977Z,23.42
2023-05-16T00:48:59.932Z,23.44
2023-05-16T00:49:09.950Z,23.44
2023-05-16T00:49:20.058Z,23.44
2023-05-16T00:49:29.988Z,23.42
2023-05-16T00:49:49.960Z,23.42
2023-05-16T00:49:59.929Z,23.44
2023-05-16T00:50:09.942Z,23.45
2023-05-16T00:50:29.176Z,23.42
2023-05-16T00:50:39.921Z,23.45
2023-05-16T00:50:59.914Z,23.42
2023-05-16T00:51:09.960Z,23.45
2023-05-16T00:51:19.928Z,23.44
2023-05-16T00:51:29.957Z,23.45
2023-05-16T00:51:39.930Z,23.42
2023-05-16T00:51:49.952Z,23.42
2023-05-16T00:52:08.982Z,23.44
2023-05-16T00:52:19.913Z,23.42
2023-05-16T00:52:29.947Z,23.42
2023-05-16T00:52:49.928Z,23.42
2023-05-16T00:52:59.905Z,23.42
2023-05-16T00:53:09.926Z,23.44
2023-05-16T00:53:29.940Z,23.42
2023-05-16T00:53:39.902Z,23.41
2023-05-16T00:53:49.925Z,23.42
2023-05-16T00:53:59.891Z,23.42
2023-05-16T00:54:09.932Z,23.41
2023-05-16T00:54:19.895Z,23.44
2023-05-16T00:54:39.897Z,23.41
2023-05-16T00:54:49.906Z,23.44
2023-05-16T00:54:59.889Z,23.45
2023-05-16T00:55:18.897Z,23.42
2023-05-16T00:55:29.914Z,23.44
2023-05-16T00:55:49.906Z,23.41
2023-05-16T00:55:59.895Z,23.42
2023-05-16T00:56:09.902Z,23.42
2023-05-16T00:56:19.902Z,23.42
2023-05-16T00:56:29.900Z,23.44
2023-05-16T00:56:39.876Z,23.41
2023-05-16T00:56:49.924Z,23.44
2023-05-16T00:57:09.888Z,23.41
2023-05-16T00:57:19.941Z,23.42
2023-05-16T00:57:29.880Z,23.42
2023-05-16T00:57:39.914Z,23.42
2023-05-16T00:57:59.886Z,23.42
2023-05-16T00:58:19.908Z,23.42
2023-05-16T00:58:29.865Z,23.42
2023-05-16T00:58:39.887Z,23.41
2023-05-16T00:58:49.864Z,23.39
2023-05-16T00:58:59.882Z,23.42
2023-05-16T00:59:09.859Z,23.41
2023-05-16T00:59:29.870Z,23.42
2023-05-16T00:59:39.879Z,23.44
2023-05-16T00:59:49.862Z,23.41
2023-05-16T00:59:59.889Z,23.42
2023-05-16T01:00:19.936Z,23.41
2023-05-16T01:00:39.885Z,23.42
2023-05-16T01:00:49.844Z,23.42
2023-05-16T01:00:59.950Z,23.42
2023-05-16T01:01:09.862Z,23.41
2023-05-16T01:01:19.912Z,23.41
2023-05-16T01:01:29.882Z,23.42
2023-05-16T01:01:49.874Z,23.41
2023-05-16T01:02:00.029Z,23.41
2023-05-16T01:02:09.837Z,23.41
2023-05-16T01:02:19.901Z,23.44
2023-05-16T01:02:29.945Z,23.44
2023-05-16T01:02:59.978Z,23.44
2023-05-16T01:03:09.930Z,23.42
2023-05-16T01:03:20.043Z,23.42
2023-05-16T01:03:29.907Z,23.42
2023-05-16T01:03:39.927Z,23.45
2023-05-16T01:03:49.933Z,23.39
2023-05-16T01:04:08.932Z,23.42
2023-05-16T01:04:19.842Z,23.44
2023-05-16T01:04:29.833Z,23.42
2023-05-16T01:04:39.864Z,23.42
2023-05-16T01:04:49.832Z,23.42
2023-05-16T01:05:09.823Z,23.42
2023-05-16T01:05:29.033Z,23.42
2023-05-16T01:05:39.830Z,23.42
2023-05-16T01:05:49.819Z,23.42
2023-05-16T01:05:59.869Z,23.41
2023-05-16T01:06:09.805Z,23.41
2023-05-16T01:06:19.851Z,23.42
2023-05-16T01:06:29.803Z,23.42
2023-05-16T01:06:39.848Z,23.41
2023-05-16T01:06:58.876Z,23.42
2023-05-16T01:07:09.802Z,23.42
2023-05-16T01:07:19.822Z,23.42
2023-05-16T01:07:39.833Z,23.42
2023-05-16T01:07:49.795Z,23.41
2023-05-16T01:07:59.840Z,23.42
2023-05-16T01:08:19.811Z,23.44
2023-05-16T01:08:29.795Z,23.44
2023-05-16T01:08:39.832Z,23.41
2023-05-16T01:08:49.817Z,23.42
2023-05-16T01:08:59.834Z,23.42
2023-05-16T01:09:09.788Z,23.44
2023-05-16T01:09:19.828Z,23.42
2023-05-16T01:09:29.791Z,23.42
2023-05-16T01:09:49.804Z,23.42
2023-05-16T01:10:08.785Z,23.44
2023-05-16T01:10:19.799Z,23.41
2023-05-16T01:10:29.767Z,23.41
2023-05-16T01:10:39.808Z,23.41
2023-05-16T01:10:59.825Z,23.41
2023-05-16T01:11:09.778Z,23.41
2023-05-16T01:11:19.822Z,23.42
2023-05-16T01:11:29.772Z,23.39
2023-05-16T01:11:39.812Z,23.42
2023-05-16T01:11:49.763Z,23.42
2023-05-16T01:12:09.786Z,23.41
2023-05-16T01:12:19.804Z,23.42
2023-05-16T01:12:29.771Z,23.41
2023-05-16T01:12:39.799Z,23.42
2023-05-16T01:12:59.780Z,23.44
2023-05-16T01:13:19.798Z,23.42
2023-05-16T01:13:29.772Z,23.44
2023-05-16T01:13:39.784Z,23.42
2023-05-16T01:13:49.749Z,23.41
2023-05-16T01:13:59.769Z,23.39
2023-05-16T01:14:09.753Z,23.42
2023-05-16T01:14:28.741Z,23.44
2023-05-16T01:14:39.806Z,23.41
2023-05-16T01:14:49.747Z,23.44
2023-05-16T01:14:59.790Z,23.44
2023-05-16T01:15:09.760Z,23.41
2023-05-16T01:15:19.788Z,23.42
2023-05-16T01:15:29.936Z,23.44
2023-05-16T01:15:48.747Z,23.42
2023-05-16T01:15:59.851Z,23.41
2023-05-16T01:16:09.796Z,23.39
2023-05-16T01:16:19.799Z,23.41
2023-05-16T01:16:29.854Z,23.44
2023-05-16T01:16:39.911Z,23.41
2023-05-16T01:16:49.730Z,23.39
2023-05-16T01:17:09.772Z,23.42
2023-05-16T01:17:19.747Z,23.39
2023-05-16T01:17:29.775Z,23.41
2023-05-16T01:17:39.793Z,23.41
2023-05-16T01:17:49.840Z,23.37
2023-05-16T01:17:59.802Z,23.39
2023-05-16T01:18:19.772Z,23.39
2023-05-16T01:18:38.768Z,23.41
2023-05-16T01:18:49.746Z,23.41
2023-05-16T01:18:59.773Z,23.41
2023-05-16T01:19:09.765Z,23.44
2023-05-16T01:19:19.811Z,23.41
2023-05-16T01:19:29.951Z,23.39
2023-05-16T01:19:39.768Z,23.42
2023-05-16T01:19:59.758Z,23.39
2023-05-16T01:20:09.723Z,23.41
2023-05-16T01:20:19.753Z,23.39
2023-05-16T01:20:29.714Z,23.39
2023-05-16T01:20:39.736Z,23.41
2023-05-16T01:20:49.702Z,23.38
2023-05-16T01:21:09.702Z,23.42
2023-05-16T01:21:19.713Z,23.41
2023-05-16T01:21:29.693Z,23.39
2023-05-16T01:21:39.726Z,23.38
2023-05-16T01:21:49.701Z,23.39
2023-05-16T01:21:59.741Z,23.41
2023-05-16T01:22:19.718Z,23.38
2023-05-16T01:22:29.692Z,23.41
2023-05-16T01:22:39.738Z,23.38
2023-05-16T01:22:49.684Z,23.41
2023-05-16T01:22:59.731Z,23.41
2023-05-16T01:23:09.686Z,23.39
2023-05-16T01:23:29.676Z,23.38
2023-05-16T01:23:39.703Z,23.39
2023-05-16T01:23:49.684Z,23.39
2023-05-16T01:24:09.682Z,23.39
2023-05-16T01:24:19.705Z,23.42
2023-05-16T01:24:38.708Z,23.39
2023-05-16T01:24:49.674Z,23.41
2023-05-16T01:24:59.701Z,23.41
2023-05-16T01:25:09.666Z,23.41
2023-05-16T01:25:19.726Z,23.41
2023-05-16T01:25:29.752Z,23.41
2023-05-16T01:25:39.682Z,23.39
2023-05-16T01:25:59.689Z,23.41
2023-05-16T01:26:09.658Z,23.42
2023-05-16T01:26:19.709Z,23.39
2023-05-16T01:26:39.685Z,23.38
2023-05-16T01:26:49.660Z,23.38
2023-05-16T01:26:59.701Z,23.39
2023-05-16T01:27:19.679Z,23.41
2023-05-16T01:27:29.653Z,23.38
2023-05-16T01:27:39.685Z,23.41
2023-05-16T01:27:49.671Z,23.41
2023-05-16T01:27:59.702Z,23.41
2023-05-16T01:28:09.651Z,23.39
2023-05-16T01:28:19.707Z,23.39
2023-05-16T01:28:38.668Z,23.39
2023-05-16T01:28:49.645Z,23.39
2023-05-16T01:29:08.646Z,23.39
2023-05-16T01:29:19.696Z,23.39
2023-05-16T01:29:29.652Z,23.39
2023-05-16T01:29:39.680Z,23.41
2023-05-16T01:29:59.682Z,23.39
2023-05-16T01:30:09.639Z,23.38
2023-05-16T01:30:19.681Z,23.39
2023-05-16T01:30:29.634Z,23.39
2023-05-16T01:30:39.676Z,23.39
2023-05-16T01:30:49.630Z,23.38
2023-05-16T01:31:09.652Z,23.39
2023-05-16T01:31:19.732Z,23.35
2023-05-16T01:31:39.740Z,23.39
2023-05-16T01:31:49.712Z,23.39
2023-05-16T01:31:59.784Z,23.41
2023-05-16T01:32:19.663Z,23.38
2023-05-16T01:32:29.660Z,23.42
2023-05-16T01:32:39.697Z,23.39
2023-05-16T01:32:49.658Z,23.39
2023-05-16T01:32:59.720Z,23.37
2023-05-16T01:33:09.665Z,23.37
2023-05-16T01:33:28.613Z,23.37
2023-05-16T01:33:39.639Z,23.39
2023-05-16T01:33:49.640Z,23.38
2023-05-16T01:34:08.606Z,23.41
2023-05-16T01:34:19.660Z,23.39
2023-05-16T01:34:29.614Z,23.39
2023-05-16T01:34:48.596Z,23.39
2023-05-16T01:34:59.639Z,23.38
2023-05-16T01:35:09.601Z,23.41
2023-05-16T01:35:19.625Z,23.39
2023-05-16T01:35:29.612Z,23.39
2023-05-16T01:35:39.642Z,23.39
2023-05-16T01:35:49.600Z,23.39
2023-05-16T01:36:09.595Z,23.39
2023-05-16T01:36:19.634Z,23.41
2023-05-16T01:36:29.585Z,23.39
2023-05-16T01:36:39.704Z,23.37
2023-05-16T01:36:58.607Z,23.37
2023-05-16T01:37:19.610Z,23.38
2023-05-16T01:37:29.593Z,23.41
2023-05-16T01:37:39.623Z,23.37
2023-05-16T01:37:49.600Z,23.39
2023-05-16T01:37:59.603Z,23.41
2023-05-16T01:38:09.578Z,23.39
2023-05-16T01:38:19.648Z,23.38
2023-05-16T01:38:39.615Z,23.38
2023-05-16T01:38:49.585Z,23.39
2023-05-16T01:38:59.617Z,23.39
2023-05-16T01:39:09.577Z,23.39
2023-05-16T01:39:29.567Z,23.37
2023-05-16T01:39:49.618Z,23.38
2023-05-16T01:39:59.567Z,23.39
2023-05-16T01:40:09.588Z,23.38
2023-05-16T01:40:19.565Z,23.39
2023-05-16T01:40:29.588Z,23.37
2023-05-16T01:40:39.573Z,23.37
2023-05-16T01:40:59.562Z,23.38
2023-05-16T01:41:09.618Z,23.38
2023-05-16T01:41:19.563Z,23.35
2023-05-16T01:41:29.606Z,23.37
2023-05-16T01:41:39.553Z,23.35
2023-05-16T01:41:49.580Z,23.39
2023-05-16T01:42:09.603Z,23.37
2023-05-16T01:42:29.594Z,23.39
2023-05-16T01:42:39.554Z,23.39
2023-05-16T01:42:49.588Z,23.38
2023-05-16T01:42:59.544Z,23.38
2023-05-16T01:43:18.554Z,23.37
2023-05-16T01:43:29.587Z,23.42
2023-05-16T01:43:39.538Z,23.38
2023-05-16T01:43:49.576Z,23.39
2023-05-16T01:43:59.544Z,23.38
2023-05-16T01:44:09.589Z,23.38
2023-05-16T01:44:19.530Z,23.41
2023-05-16T01:44:39.529Z,23.38
2023-05-16T01:44:49.568Z,23.37
2023-05-16T01:45:09.544Z,23.38
2023-05-16T01:45:19.529Z,23.39
2023-05-16T01:45:29.914Z,23.39
2023-05-16T01:45:49.570Z,23.41
2023-05-16T01:45:59.525Z,23.39
2023-05-16T01:46:09.545Z,23.39
2023-05-16T01:46:19.553Z,23.38
2023-05-16T01:46:29.582Z,23.39
2023-05-16T01:46:39.563Z,23.38
2023-05-16T01:46:58.546Z,23.38
2023-05-16T01:47:09.640Z,23.39
2023-05-16T01:47:29.573Z,23.38
2023-05-16T01:47:39.593Z,23.38
2023-05-16T01:47:49.648Z,23.37
2023-05-16T01:47:59.560Z,23.37
2023-05-16T01:48:19.518Z,23.38
2023-05-16T01:48:29.533Z,23.38
2023-05-16T01:48:39.519Z,23.39
2023-05-16T01:48:49.547Z,23.38
2023-05-16T01:48:59.513Z,23.37
2023-05-16T01:49:09.521Z,23.35
2023-05-16T01:49:29.513Z,23.41
2023-05-16T01:49:39.496Z,23.38
2023-05-16T01:49:49.546Z,23.37
2023-05-16T01:49:59.496Z,23.39
2023-05-16T01:50:19.491Z,23.39
2023-05-16T01:50:39.491Z,23.37
2023-05-16T01:50:49.509Z,23.38
2023-05-16T01:50:59.486Z,23.38
2023-05-16T01:51:09.520Z,23.37
2023-05-16T01:51:19.487Z,23.39
2023-05-16T01:51:29.534Z,23.39
2023-05-16T01:51:49.528Z,23.38
2023-05-16T01:51:59.482Z,23.35
2023-05-16T01:52:09.501Z,23.38
2023-05-16T01:52:19.478Z,23.37
2023-05-16T01:52:29.530Z,23.38
2023-05-16T01:52:58.466Z,23.37
2023-05-16T01:53:09.526Z,23.39
2023-05-16T01:53:19.488Z,23.35
2023-05-16T01:53:29.498Z,23.39
2023-05-16T01:53:39.522Z,23.37
2023-05-16T01:53:49.484Z,23.39
2023-05-16T01:53:59.469Z,23.38
2023-05-16T01:54:19.474Z,23.38
2023-05-16T01:54:29.524Z,23.39
2023-05-16T01:54:39.486Z,23.38
2023-05-16T01:54:49.483Z,23.38
2023-05-16T01:54:59.492Z,23.39
2023-05-16T01:55:19.537Z,23.38
2023-05-16T01:55:39.455Z,23.39
2023-05-16T01:55:49.474Z,23.38
2023-05-16T01:55:59.450Z,23.39
2023-05-16T01:56:09.501Z,23.39
2023-05-16T01:56:19.447Z,23.38
2023-05-16T01:56:29.517Z,23.39
2023-05-16T01:56:49.495Z,23.37
2023-05-16T01:56:59.450Z,23.39
2023-05-16T01:57:09.489Z,23.38
2023-05-16T01:57:19.439Z,23.38
2023-05-16T01:57:29.527Z,23.38
2023-05-16T01:57:59.444Z,23.38
2023-05-16T01:58:09.458Z,23.38
2023-05-16T01:58:19.437Z,23.38
2023-05-16T01:58:29.644Z,23.38
2023-05-16T01:58:39.434Z,23.37
2023-05-16T01:58:49.472Z,23.38
2023-05-16T01:59:08.452Z,23.37
2023-05-16T01:59:19.434Z,23.38
2023-05-16T01:59:29.471Z,23.38
2023-05-16T01:59:39.423Z,23.41
2023-05-16T01:59:49.489Z,23.41
2023-05-16T02:00:08.474Z,23.37
2023-05-16T02:00:29.500Z,23.37
2023-05-16T02:00:39.455Z,23.37
2023-05-16T02:00:49.535Z,23.37
2023-05-16T02:00:59.504Z,23.38
2023-05-16T02:01:09.535Z,23.37
2023-05-16T02:01:19.468Z,23.39
2023-05-16T02:01:39.595Z,23.37
2023-05-16T02:01:49.441Z,23.38
2023-05-16T02:01:59.424Z,23.38
2023-05-16T02:02:09.481Z,23.37
2023-05-16T02:02:19.545Z,23.39
2023-05-16T02:02:49.531Z,23.39
2023-05-16T02:02:59.466Z,23.38
2023-05-16T02:03:09.712Z,23.38
2023-05-16T02:03:19.459Z,23.38
2023-05-16T02:03:29.472Z,23.38
2023-05-16T02:03:39.465Z,23.39
2023-05-16T02:03:49.502Z,23.38
2023-05-16T02:04:09.517Z,23.39
2023-05-16T02:04:19.481Z,23.38
2023-05-16T02:04:29.417Z,23.37
2023-05-16T02:04:39.389Z,23.35
2023-05-16T02:04:49.431Z,23.39
2023-05-16T02:05:09.456Z,23.39
2023-05-16T02:05:28.726Z,23.37
2023-05-16T02:05:39.390Z,23.37
2023-05-16T02:05:49.407Z,23.38
2023-05-16T02:05:59.386Z,23.37
2023-05-16T02:06:09.409Z,23.38
2023-05-16T02:06:19.392Z,23.38
2023-05-16T02:06:29.420Z,23.34
2023-05-16T02:06:49.417Z,23.38
2023-05-16T02:06:59.377Z,23.38
2023-05-16T02:07:09.439Z,23.39
2023-05-16T02:07:19.428Z,23.38
2023-05-16T02:07:39.369Z,23.38
2023-05-16T02:07:59.367Z,23.37
2023-05-16T02:08:09.393Z,23.37
2023-05-16T02:08:19.365Z,23.35
2023-05-16T02:08:29.411Z,23.37
2023-05-16T02:08:39.366Z,23.37
2023-05-16T02:08:49.383Z,23.35
2023-05-16T02:09:09.386Z,23.35
2023-05-16T02:09:19.359Z,23.35
2023-05-16T02:09:29.400Z,23.38
2023-05-16T02:09:39.377Z,23.34
2023-05-16T02:09:49.396Z,23.35
2023-05-16T02:10:19.371Z,23.37
2023-05-16T02:10:29.378Z,23.35
2023-05-16T02:10:39.350Z,23.37
2023-05-16T02:10:49.373Z,23.37
2023-05-16T02:10:59.346Z,23.38
2023-05-16T02:11:09.387Z,23.38
2023-05-16T02:11:29.363Z,23.38
2023-05-16T02:11:39.369Z,23.37
2023-05-16T02:11:49.374Z,23.37
2023-05-16T02:11:59.339Z,23.38
2023-05-16T02:12:09.399Z,23.35
2023-05-16T02:12:39.336Z,23.37
2023-05-16T02:12:49.353Z,23.37
2023-05-16T02:12:59.341Z,23.37
2023-05-16T02:13:09.384Z,23.37
2023-05-16T02:13:19.323Z,23.37
2023-05-16T02:13:29.403Z,23.34
2023-05-16T02:13:48.351Z,23.37
2023-05-16T02:13:59.335Z,23.35
2023-05-16T02:14:09.354Z,23.39
2023-05-16T02:14:19.323Z,23.37
2023-05-16T02:14:29.348Z,23.37
2023-05-16T02:14:39.332Z,23.35
2023-05-16T02:14:49.366Z,23.35
2023-05-16T02:15:08.342Z,23.35
2023-05-16T02:15:19.336Z,23.38
2023-05-16T02:15:29.528Z,23.37
2023-05-16T02:15:39.317Z,23.37
2023-05-16T02:15:49.353Z,23.35
2023-05-16T02:15:59.316Z,23.38
2023-05-16T02:16:09.355Z,23.35
2023-05-16T02:16:29.358Z,23.34
2023-05-16T02:16:39.374Z,23.37
2023-05-16T02:16:49.447Z,23.37
2023-05-16T02:16:59.338Z,23.38
2023-05-16T02:17:09.373Z,23.37
2023-05-16T02:17:29.378Z,23.35
2023-05-16T02:17:49.381Z,23.37
2023-05-16T02:17:59.332Z,23.35
2023-05-16T02:18:09.471Z,23.38
2023-05-16T02:18:19.296Z,23.35
2023-05-16T02:18:29.440Z,23.38
2023-05-16T02:18:39.321Z,23.38
2023-05-16T02:18:59.335Z,23.37
2023-05-16T02:19:09.351Z,23.37
2023-05-16T02:19:19.356Z,23.37
2023-05-16T02:19:29.320Z,23.37
2023-05-16T02:19:49.336Z,23.35
2023-05-16T02:20:08.302Z,23.37
2023-05-16T02:20:19.294Z,23.35
2023-05-16T02:20:29.325Z,23.35
2023-05-16T02:20:39.280Z,23.38
2023-05-16T02:20:49.434Z,23.35
2023-05-16T02:20:59.290Z,23.38
2023-05-16T02:21:09.302Z,23.37
2023-05-16T02:21:29.291Z,23.37
2023-05-16T02:21:39.282Z,23.38
2023-05-16T02:21:49.308Z,23.37
2023-05-16T02:21:59.264Z,23.35
2023-05-16T02:22:19.265Z,23.39
2023-05-16T02:22:39.337Z,23.35
2023-05-16T02:22:49.264Z,23.37
2023-05-16T02:22:59.308Z,23.38
2023-05-16T02:23:09.259Z,23.35
2023-05-16T02:23:19.305Z,23.37
2023-05-16T02:23:29.257Z,23.37
2023-05-16T02:23:49.255Z,23.39
2023-05-16T02:23:59.301Z,23.37
2023-05-16T02:24:09.256Z,23.37
2023-05-16T02:24:19.301Z,23.34
2023-05-16T02:24:29.254Z,23.37
2023-05-16T02:24:59.293Z,23.35
2023-05-16T02:25:09.249Z,23.35
2023-05-16T02:25:19.269Z,23.35
2023-05-16T02:25:29.341Z,23.34
2023-05-16T02:25:39.288Z,23.38
2023-05-16T02:25:49.240Z,23.35
2023-05-16T02:26:09.241Z,23.37
2023-05-16T02:26:19.278Z,23.35
2023-05-16T02:26:29.243Z,23.35
2023-05-16T02:26:39.264Z,23.35
2023-05-16T02:26:49.249Z,23.34
2023-05-16T02:27:19.277Z,23.35
2023-05-16T02:27:29.227Z,23.35
2023-05-16T02:27:39.272Z,23.35
2023-05-16T02:27:49.240Z,23.34
2023-05-16T02:27:59.258Z,23.35
2023-05-16T02:28:09.227Z,23.37
2023-05-16T02:28:28.216Z,23.35
2023-05-16T02:28:39.266Z,23.34
2023-05-16T02:28:49.225Z,23.35
2023-05-16T02:28:59.251Z,23.35
2023-05-16T02:29:09.214Z,23.35
2023-05-16T02:29:19.265Z,23.34
2023-05-16T02:29:29.215Z,23.37
2023-05-16T02:29:48.278Z,23.34
2023-05-16T02:29:59.272Z,23.35
2023-05-16T02:30:09.225Z,23.35
2023-05-16T02:30:19.265Z,23.34
2023-05-16T02:30:29.211Z,23.34
2023-05-16T02:30:39.298Z,23.38
2023-05-16T02:30:49.253Z,23.34
2023-05-16T02:30:59.305Z,23.34
2023-05-16T02:31:19.275Z,23.35
2023-05-16T02:31:29.348Z,23.34
2023-05-16T02:31:39.332Z,23.35
2023-05-16T02:31:49.224Z,23.37
2023-05-16T02:32:09.226Z,23.35
2023-05-16T02:32:19.280Z,23.35
2023-05-16T02:32:39.269Z,23.37
2023-05-16T02:32:49.295Z,23.35
2023-05-16T02:32:59.282Z,23.35
2023-05-16T02:33:09.226Z,23.37
2023-05-16T02:33:19.231Z,23.37
2023-05-16T02:33:29.207Z,23.38
2023-05-16T02:33:49.188Z,23.38
2023-05-16T02:33:59.232Z,23.34
2023-05-16T02:34:09.205Z,23.35
2023-05-16T02:34:19.227Z,23.35
2023-05-16T02:34:39.226Z,23.35
2023-05-16T02:34:59.196Z,23.35
2023-05-16T02:35:09.179Z,23.37
2023-05-16T02:35:19.218Z,23.34
2023-05-16T02:35:29.273Z,23.35
2023-05-16T02:35:39.215Z,23.32
2023-05-16T02:35:49.170Z,23.34
2023-05-16T02:35:59.212Z,23.34
2023-05-16T02:36:18.212Z,23.32
2023-05-16T02:36:29.172Z,23.35
2023-05-16T02:36:39.200Z,23.34
2023-05-16T02:36:49.172Z,23.37
2023-05-16T02:37:10.740Z,23.32
2023-05-16T02:37:19.208Z,23.32
2023-05-16T02:37:38.200Z,23.35
2023-05-16T02:37:49.170Z,23.35
2023-05-16T02:37:59.181Z,23.32
2023-05-16T02:38:09.157Z,23.35
2023-05-16T02:38:19.196Z,23.34
2023-05-16T02:38:29.157Z,23.37
2023-05-16T02:38:39.176Z,23.38
2023-05-16T02:38:59.194Z,23.35